Briggs, Ohio
Current Conditions -  °F | °C
As of 7:51 PM on Thursday 27 Nov 2014 (Local Time) from KCLE Reporting Station
Heavy Snow Heavy Snow  
Wind Chill: 22°   Ceiling: 400
Heat Index: 29°   Visibility: 0.25mi
Dew Point: 27°   Wind: 7mph
Humidity: 92%   Direction: 290°WNW
Pressure: 30.23"   Gusts: NA
Location:  41.3848°N, 81.7045°W
Report Text: KCLE 280051Z 29006KT 1/4SM +SN FZFG VV004 M02/M03 A3023 RMK AO2 SLP247 SNINCR 2/2 P0010 T10171028 $
Loading
Personal Weather Stations






























Interactive Weather Map New forecast layout! Learn more

10-Day Weather Forecast

Advertisements
Track Severe Weather on mobile